Terminal Aerodrome Forecast
Issued by NWS

Home | Current Version | Previous Version | Text Only | Print | Product List | Glossary On
Versions: 1 2 3 4 5 6 7 8 9 10 11 12 13 14 15 16 17 18 19 20 21 22 23 24 25 26 27 28 29 30 31 32 33 34 35 36 37 38 39 40 41 42 43 44
062
FTAK31 PANC 230905 AAB
TAFACD
TAF AMD
PACD 230905Z 2309/2406 12025G35KT P6SM -RASN SCT015 OVC035
     FM231200 14015G22KT 3SM -RASN OVC015
     FM240300 14012KT 6SM -RA OVC025=

USA.gov is the U.S. government's official web portal to all federal, state and local government web resources and services.